Aeroporto :
LOGIN :

Iscrizione | Disclaimer

   EN    FR    IT 

 










Sommario :    VFR   VFR Marginale   IFR   IFR Intensivo   IFR Molto Intensivo
Visibilità : 
Base nubi : 
>= 8 km
>= 3000ft
5 / 8 km
1000 / 3000 ft
1500m / 5 km
500 / 1000 ft
800 / 1500m
200 / 500 ft
< 800m
< 200 ft
Simboli :   Temporali  Nebbia  Neve Forte  Precipitazioni Forti  Vento > 20 kt
SIGMETs :   Varie  Temporali  Ghiacco  Turbolenza  Onda orograficha  Ceneri Vulcaniche






- Altitudine del aeroporto : 12 ft
- Codice IATA : NCE


LFMN - Nice

ULTIMO METAR :
  • 200130Z 10012KT CAVOK 14/10 Q1007 NOSIG

METARs OBSOLETI :
  • 200100Z 10012KT CAVOK 14/11 Q1007 NOSIG
  • 200030Z 10006KT CAVOK 11/06 Q1007 NOSIG
  • 200000Z 34006KT 300V030 CAVOK 11/05 Q1007 NOSIG
  • 192330Z 26005KT 230V300 CAVOK 10/05 Q1007 NOSIG
  • 192300Z 26006KT CAVOK 10/06 Q1008 NOSIG
  • 192230Z 30004KT CAVOK 11/05 Q1008 NOSIG
  • 192200Z 32005KT CAVOK 12/04 Q1009 NOSIG
  • 192130Z 32007KT CAVOK 12/05 Q1009 NOSIG
  • 192100Z 32006KT CAVOK 12/06 Q1010 NOSIG

TAF TAF LFMN
Valido dal 19 a 21 ore il 21 a 03 ore UTC


192000Z 1921/2103 34010KT CAVOK
PROB40
TEMPO 2000/2006 09010KT
BECMG 2007/2010 18010KT
PROB40
TEMPO 2011/2018 SHRA FEW050TCU
PROB30
TEMPO 2011/2017 VRB15G25KT 4000 TSRA SCT050CB
BECMG 2018/2020 34010KT
PROB30
TEMPO 2021/2024 10010KT
ATIS : +33 4 93 17 21 16



MetMap, La meteo Aeronautica in un colpo d'occhio ! - Copyright ORBIFLY Dicembre 2007 - Disclaimer

ORBIFLY MET'MAP TEAM :

Programmazione e sviluppo : Alexandra Zaïnal
Concezione : Baudouin d'Aumeries
Supporto tecnico e logistico : Manuel Goepfert
Aiuto : Marc-Olivier Méhu
Aiuto per la traduzione : Arnaldo La Scala




FONTI E CREDITI :

   NOAA